sensor_id;sensor_type;location;lat;lon;timestamp;pressure;altitude;pressure_sealevel;temperature;humidity
72896;BME280;61036;53.224;6.554;2023-12-22T00:01:00;97587.75;;;5.49;100.00
72896;BME280;61036;53.224;6.554;2023-12-22T00:03:26;97612.16;;;5.55;100.00
72896;BME280;61036;53.224;6.554;2023-12-22T00:05:51;97619.69;;;5.51;100.00
72896;BME280;61036;53.224;6.554;2023-12-22T00:08:17;97626.16;;;5.40;100.00
72896;BME280;61036;53.224;6.554;2023-12-22T00:10:42;97627.16;;;5.39;100.00
72896;BME280;61036;53.224;6.554;2023-12-22T00:13:08;97650.19;;;5.40;100.00
72896;BME280;61036;53.224;6.554;2023-12-22T00:15:33;97701.28;;;5.37;100.00
72896;BME280;61036;53.224;6.554;2023-12-22T00:17:59;97617.66;;;5.02;100.00
72896;BME280;61036;53.224;6.554;2023-12-22T00:20:24;97599.03;;;4.85;100.00
72896;BME280;61036;53.224;6.554;2023-12-22T00:22:50;97592.94;;;4.74;100.00
72896;BME280;61036;53.224;6.554;2023-12-22T00:25:15;97587.22;;;4.69;100.00
72896;BME280;61036;53.224;6.554;2023-12-22T00:27:41;97567.09;;;4.75;100.00
72896;BME280;61036;53.224;6.554;2023-12-22T00:30:07;97588.34;;;4.85;100.00
72896;BME280;61036;53.224;6.554;2023-12-22T00:32:32;97591.03;;;4.93;100.00
72896;BME280;61036;53.224;6.554;2023-12-22T00:34:58;97605.59;;;4.98;100.00
72896;BME280;61036;53.224;6.554;2023-12-22T00:37:23;97662.56;;;5.07;100.00
72896;BME280;61036;53.224;6.554;2023-12-22T00:39:49;97688.69;;;4.95;100.00
72896;BME280;61036;53.224;6.554;2023-12-22T00:42:14;97722.19;;;4.28;100.00
72896;BME280;61036;53.224;6.554;2023-12-22T00:44:40;97716.00;;;4.45;100.00
72896;BME280;61036;53.224;6.554;2023-12-22T00:47:05;97707.72;;;4.74;100.00
72896;BME280;61036;53.224;6.554;2023-12-22T00:49:31;97723.44;;;4.77;100.00
72896;BME280;61036;53.224;6.554;2023-12-22T00:51:56;97744.97;;;4.76;100.00
72896;BME280;61036;53.224;6.554;2023-12-22T00:54:22;97758.00;;;4.79;100.00
72896;BME280;61036;53.224;6.554;2023-12-22T00:56:47;97757.91;;;4.89;100.00
72896;BME280;61036;53.224;6.554;2023-12-22T00:59:13;97769.88;;;4.85;100.00
72896;BME280;61036;53.224;6.554;2023-12-22T01:01:38;97738.41;;;4.70;100.00
72896;BME280;61036;53.224;6.554;2023-12-22T01:04:03;97761.19;;;4.65;100.00
72896;BME280;61036;53.224;6.554;2023-12-22T01:06:29;97787.50;;;4.59;100.00
72896;BME280;61036;53.224;6.554;2023-12-22T01:08:54;97781.41;;;4.67;100.00
72896;BME280;61036;53.224;6.554;2023-12-22T01:11:20;97781.63;;;4.74;100.00
72896;BME280;61036;53.224;6.554;2023-12-22T01:13:45;97787.34;;;4.79;100.00
72896;BME280;61036;53.224;6.554;2023-12-22T01:16:11;97780.63;;;4.75;100.00
72896;BME280;61036;53.224;6.554;2023-12-22T01:18:36;97772.78;;;4.91;100.00
72896;BME280;61036;53.224;6.554;2023-12-22T01:21:02;97775.38;;;4.83;100.00
72896;BME280;61036;53.224;6.554;2023-12-22T01:23:28;97773.59;;;4.92;100.00
72896;BME280;61036;53.224;6.554;2023-12-22T01:25:54;97768.56;;;5.07;100.00
72896;BME280;61036;53.224;6.554;2023-12-22T01:28:19;97765.72;;;5.08;100.00
72896;BME280;61036;53.224;6.554;2023-12-22T01:30:45;97756.50;;;5.02;100.00
72896;BME280;61036;53.224;6.554;2023-12-22T01:33:10;97754.50;;;5.04;100.00
72896;BME280;61036;53.224;6.554;2023-12-22T01:35:36;97787.03;;;5.00;100.00
72896;BME280;61036;53.224;6.554;2023-12-22T01:38:01;97762.16;;;4.99;100.00
72896;BME280;61036;53.224;6.554;2023-12-22T01:40:27;97761.31;;;4.99;100.00
72896;BME280;61036;53.224;6.554;2023-12-22T01:42:52;97755.41;;;5.13;100.00
72896;BME280;61036;53.224;6.554;2023-12-22T01:45:18;97760.44;;;5.16;100.00
72896;BME280;61036;53.224;6.554;2023-12-22T01:47:45;97755.25;;;5.15;100.00
72896;BME280;61036;53.224;6.554;2023-12-22T01:50:12;97781.22;;;4.87;100.00
72896;BME280;61036;53.224;6.554;2023-12-22T01:52:40;97786.28;;;4.72;100.00
72896;BME280;61036;53.224;6.554;2023-12-22T01:55:06;97791.47;;;4.55;100.00
72896;BME280;61036;53.224;6.554;2023-12-22T01:57:35;97786.75;;;4.49;100.00
72896;BME280;61036;53.224;6.554;2023-12-22T02:00:02;97777.13;;;4.56;100.00
72896;BME280;61036;53.224;6.554;2023-12-22T02:02:37;97757.16;;;4.61;100.00
72896;BME280;61036;53.224;6.554;2023-12-22T02:05:04;97747.47;;;4.59;100.00
72896;BME280;61036;53.224;6.554;2023-12-22T02:07:31;97751.88;;;4.69;100.00
72896;BME280;61036;53.224;6.554;2023-12-22T02:09:57;97738.38;;;4.88;100.00
72896;BME280;61036;53.224;6.554;2023-12-22T02:12:22;97748.25;;;4.96;100.00
72896;BME280;61036;53.224;6.554;2023-12-22T02:14:48;97736.81;;;5.03;100.00
72896;BME280;61036;53.224;6.554;2023-12-22T02:17:44;97779.53;;;5.03;100.00
72896;BME280;61036;53.224;6.554;2023-12-22T02:20:13;97759.75;;;4.52;100.00
72896;BME280;61036;53.224;6.554;2023-12-22T02:22:39;97730.31;;;4.44;100.00
72896;BME280;61036;53.224;6.554;2023-12-22T02:25:05;97709.81;;;4.45;100.00
72896;BME280;61036;53.224;6.554;2023-12-22T02:30:13;97677.75;;;4.37;100.00
72896;BME280;61036;53.224;6.554;2023-12-22T02:32:43;97673.69;;;4.32;100.00
72896;BME280;61036;53.224;6.554;2023-12-22T02:35:13;97681.56;;;4.34;100.00
72896;BME280;61036;53.224;6.554;2023-12-22T02:37:40;97661.66;;;4.28;100.00
72896;BME280;61036;53.224;6.554;2023-12-22T02:40:07;97645.25;;;4.41;100.00
72896;BME280;61036;53.224;6.554;2023-12-22T02:42:34;97639.41;;;4.38;100.00
72896;BME280;61036;53.224;6.554;2023-12-22T02:45:00;97617.28;;;4.45;100.00
72896;BME280;61036;53.224;6.554;2023-12-22T02:47:26;97605.50;;;4.56;100.00
72896;BME280;61036;53.224;6.554;2023-12-22T02:49:55;97572.22;;;4.68;100.00
72896;BME280;61036;53.224;6.554;2023-12-22T02:52:20;97582.00;;;4.86;100.00
72896;BME280;61036;53.224;6.554;2023-12-22T02:54:46;97565.03;;;4.95;100.00
72896;BME280;61036;53.224;6.554;2023-12-22T02:57:12;97578.09;;;5.06;100.00
72896;BME280;61036;53.224;6.554;2023-12-22T02:59:38;97618.53;;;5.19;100.00
72896;BME280;61036;53.224;6.554;2023-12-22T03:02:04;97635.47;;;5.02;100.00
72896;BME280;61036;53.224;6.554;2023-12-22T03:04:30;97665.41;;;4.79;100.00
72896;BME280;61036;53.224;6.554;2023-12-22T03:06:55;97672.41;;;4.37;100.00
72896;BME280;61036;53.224;6.554;2023-12-22T03:09:21;97691.13;;;3.73;100.00
72896;BME280;61036;53.224;6.554;2023-12-22T03:11:47;97677.44;;;3.58;100.00
72896;BME280;61036;53.224;6.554;2023-12-22T03:14:13;97670.78;;;3.44;100.00
72896;BME280;61036;53.224;6.554;2023-12-22T03:16:39;97652.03;;;3.36;100.00
72896;BME280;61036;53.224;6.554;2023-12-22T03:19:05;97655.00;;;3.33;100.00
72896;BME280;61036;53.224;6.554;2023-12-22T03:21:31;97633.69;;;3.33;100.00
72896;BME280;61036;53.224;6.554;2023-12-22T03:23:57;97623.56;;;3.37;100.00
72896;BME280;61036;53.224;6.554;2023-12-22T03:26:22;97605.84;;;3.46;100.00
72896;BME280;61036;53.224;6.554;2023-12-22T03:28:48;97584.34;;;3.57;100.00
72896;BME280;61036;53.224;6.554;2023-12-22T03:31:13;97582.00;;;3.72;100.00
72896;BME280;61036;53.224;6.554;2023-12-22T03:33:39;97573.16;;;3.89;100.00
72896;BME280;61036;53.224;6.554;2023-12-22T03:36:04;97568.72;;;4.16;100.00
72896;BME280;61036;53.224;6.554;2023-12-22T03:38:30;97554.16;;;4.36;100.00
72896;BME280;61036;53.224;6.554;2023-12-22T03:40:55;97563.69;;;4.39;100.00
72896;BME280;61036;53.224;6.554;2023-12-22T03:43:20;97568.56;;;4.43;100.00
72896;BME280;61036;53.224;6.554;2023-12-22T03:45:46;97590.75;;;4.44;100.00
72896;BME280;61036;53.224;6.554;2023-12-22T03:48:11;97592.16;;;4.56;100.00
72896;BME280;61036;53.224;6.554;2023-12-22T03:50:37;97629.66;;;4.72;100.00
72896;BME280;61036;53.224;6.554;2023-12-22T03:53:03;97644.72;;;4.81;100.00
72896;BME280;61036;53.224;6.554;2023-12-22T03:55:28;97637.75;;;4.89;100.00
72896;BME280;61036;53.224;6.554;2023-12-22T03:57:54;97657.66;;;4.94;100.00
72896;BME280;61036;53.224;6.554;2023-12-22T04:00:19;97667.22;;;5.05;100.00
72896;BME280;61036;53.224;6.554;2023-12-22T04:02:45;97685.91;;;5.05;100.00
72896;BME280;61036;53.224;6.554;2023-12-22T04:05:13;97683.47;;;5.12;100.00
72896;BME280;61036;53.224;6.554;2023-12-22T04:07:39;97694.97;;;5.12;100.00
72896;BME280;61036;53.224;6.554;2023-12-22T04:10:05;97714.97;;;5.08;100.00
72896;BME280;61036;53.224;6.554;2023-12-22T04:12:30;97722.00;;;5.09;100.00
72896;BME280;61036;53.224;6.554;2023-12-22T04:14:56;97735.34;;;5.09;100.00
72896;BME280;61036;53.224;6.554;2023-12-22T04:17:22;97721.06;;;5.18;100.00
72896;BME280;61036;53.224;6.554;2023-12-22T04:19:47;97717.00;;;5.14;100.00
72896;BME280;61036;53.224;6.554;2023-12-22T04:22:13;97716.50;;;5.11;100.00
72896;BME280;61036;53.224;6.554;2023-12-22T04:24:38;97718.06;;;5.21;100.00
72896;BME280;61036;53.224;6.554;2023-12-22T04:27:04;97720.63;;;5.31;100.00
72896;BME280;61036;53.224;6.554;2023-12-22T04:29:29;97749.81;;;5.24;100.00
72896;BME280;61036;53.224;6.554;2023-12-22T04:31:55;97750.06;;;5.39;100.00
72896;BME280;61036;53.224;6.554;2023-12-22T04:34:20;97750.84;;;5.58;100.00
72896;BME280;61036;53.224;6.554;2023-12-22T04:36:46;97764.72;;;5.61;100.00
72896;BME280;61036;53.224;6.554;2023-12-22T04:39:12;97800.78;;;5.57;100.00
72896;BME280;61036;53.224;6.554;2023-12-22T04:41:37;97830.72;;;5.61;100.00
72896;BME280;61036;53.224;6.554;2023-12-22T04:44:03;97825.72;;;5.66;100.00
72896;BME280;61036;53.224;6.554;2023-12-22T04:46:29;97861.16;;;5.68;100.00
72896;BME280;61036;53.224;6.554;2023-12-22T04:48:55;97859.31;;;5.68;100.00
72896;BME280;61036;53.224;6.554;2023-12-22T04:51:21;97865.53;;;5.69;100.00
72896;BME280;61036;53.224;6.554;2023-12-22T04:53:46;97860.19;;;5.77;100.00
72896;BME280;61036;53.224;6.554;2023-12-22T04:56:12;97868.09;;;5.79;100.00
72896;BME280;61036;53.224;6.554;2023-12-22T04:58:37;97892.72;;;5.64;100.00
72896;BME280;61036;53.224;6.554;2023-12-22T05:01:03;97892.03;;;5.62;100.00
72896;BME280;61036;53.224;6.554;2023-12-22T05:03:28;97895.81;;;5.78;100.00
72896;BME280;61036;53.224;6.554;2023-12-22T05:05:54;97896.19;;;5.83;100.00
72896;BME280;61036;53.224;6.554;2023-12-22T05:08:19;97888.66;;;5.86;100.00
72896;BME280;61036;53.224;6.554;2023-12-22T05:10:45;97906.75;;;5.92;100.00
72896;BME280;61036;53.224;6.554;2023-12-22T05:13:10;97894.16;;;6.03;100.00
72896;BME280;61036;53.224;6.554;2023-12-22T05:15:35;97903.84;;;6.04;100.00
72896;BME280;61036;53.224;6.554;2023-12-22T05:18:01;97898.69;;;6.02;100.00
72896;BME280;61036;53.224;6.554;2023-12-22T05:20:26;97891.13;;;5.98;100.00
72896;BME280;61036;53.224;6.554;2023-12-22T05:22:52;97888.63;;;5.96;100.00
72896;BME280;61036;53.224;6.554;2023-12-22T05:25:17;97898.75;;;5.92;100.00
72896;BME280;61036;53.224;6.554;2023-12-22T05:27:43;97880.91;;;5.93;100.00
72896;BME280;61036;53.224;6.554;2023-12-22T05:30:09;97891.03;;;5.89;100.00
72896;BME280;61036;53.224;6.554;2023-12-22T05:32:35;97882.16;;;5.89;100.00
72896;BME280;61036;53.224;6.554;2023-12-22T05:35:00;97878.34;;;5.91;100.00
72896;BME280;61036;53.224;6.554;2023-12-22T05:37:26;97871.56;;;5.97;100.00
72896;BME280;61036;53.224;6.554;2023-12-22T05:39:51;97895.13;;;5.93;100.00
72896;BME280;61036;53.224;6.554;2023-12-22T05:42:17;97887.75;;;5.95;100.00
72896;BME280;61036;53.224;6.554;2023-12-22T05:44:42;97886.25;;;5.93;100.00
72896;BME280;61036;53.224;6.554;2023-12-22T05:47:08;97899.00;;;5.99;100.00
72896;BME280;61036;53.224;6.554;2023-12-22T05:49:33;97907.38;;;6.04;100.00
72896;BME280;61036;53.224;6.554;2023-12-22T05:51:59;97921.53;;;5.97;100.00
72896;BME280;61036;53.224;6.554;2023-12-22T05:54:24;97906.47;;;5.95;100.00
72896;BME280;61036;53.224;6.554;2023-12-22T05:56:50;97905.28;;;5.90;100.00
72896;BME280;61036;53.224;6.554;2023-12-22T05:59:17;97901.81;;;5.98;100.00
72896;BME280;61036;53.224;6.554;2023-12-22T06:01:43;97906.09;;;5.90;100.00
72896;BME280;61036;53.224;6.554;2023-12-22T06:04:08;97903.81;;;5.95;100.00
72896;BME280;61036;53.224;6.554;2023-12-22T06:06:36;97891.03;;;5.89;100.00
72896;BME280;61036;53.224;6.554;2023-12-22T06:09:01;97896.31;;;5.99;100.00
72896;BME280;61036;53.224;6.554;2023-12-22T06:11:58;97911.38;;;6.00;100.00
72896;BME280;61036;53.224;6.554;2023-12-22T06:14:23;97909.84;;;5.98;100.00
72896;BME280;61036;53.224;6.554;2023-12-22T06:16:53;97918.06;;;6.04;100.00
72896;BME280;61036;53.224;6.554;2023-12-22T06:19:19;97919.22;;;6.02;100.00
72896;BME280;61036;53.224;6.554;2023-12-22T06:21:44;97904.66;;;5.96;100.00
72896;BME280;61036;53.224;6.554;2023-12-22T06:24:10;97895.47;;;5.99;100.00
72896;BME280;61036;53.224;6.554;2023-12-22T06:26:35;97892.28;;;5.95;100.00
72896;BME280;61036;53.224;6.554;2023-12-22T06:29:01;97883.78;;;6.00;100.00
72896;BME280;61036;53.224;6.554;2023-12-22T06:43:10;97889.50;;;6.05;100.00
72896;BME280;61036;53.224;6.554;2023-12-22T06:45:36;97926.06;;;5.78;100.00
72896;BME280;61036;53.224;6.554;2023-12-22T06:48:01;97958.34;;;4.77;100.00
72896;BME280;61036;53.224;6.554;2023-12-22T06:50:27;97940.44;;;4.70;100.00
72896;BME280;61036;53.224;6.554;2023-12-22T06:52:52;97930.72;;;4.69;100.00
72896;BME280;61036;53.224;6.554;2023-12-22T06:55:18;97927.75;;;4.72;100.00
72896;BME280;61036;53.224;6.554;2023-12-22T06:57:43;97909.31;;;4.78;100.00
72896;BME280;61036;53.224;6.554;2023-12-22T07:00:09;97898.41;;;4.90;100.00
72896;BME280;61036;53.224;6.554;2023-12-22T07:02:35;97895.75;;;4.90;100.00
72896;BME280;61036;53.224;6.554;2023-12-22T07:07:35;97855.00;;;5.23;100.00
72896;BME280;61036;53.224;6.554;2023-12-22T07:10:01;97860.47;;;5.40;100.00
72896;BME280;61036;53.224;6.554;2023-12-22T07:12:27;97871.63;;;5.61;100.00
72896;BME280;61036;53.224;6.554;2023-12-22T07:14:53;97896.44;;;5.71;100.00
72896;BME280;61036;53.224;6.554;2023-12-22T07:17:19;97916.84;;;5.72;100.00
72896;BME280;61036;53.224;6.554;2023-12-22T07:19:44;97916.00;;;5.72;100.00
72896;BME280;61036;53.224;6.554;2023-12-22T07:22:10;97919.59;;;5.81;100.00
72896;BME280;61036;53.224;6.554;2023-12-22T07:24:35;97935.13;;;5.85;100.00
72896;BME280;61036;53.224;6.554;2023-12-22T07:27:01;97926.81;;;5.88;100.00
72896;BME280;61036;53.224;6.554;2023-12-22T07:29:26;97932.78;;;5.82;100.00
72896;BME280;61036;53.224;6.554;2023-12-22T07:31:52;97938.63;;;5.78;100.00
72896;BME280;61036;53.224;6.554;2023-12-22T07:34:17;97956.28;;;5.53;100.00
72896;BME280;61036;53.224;6.554;2023-12-22T07:36:44;97953.59;;;5.35;100.00
72896;BME280;61036;53.224;6.554;2023-12-22T07:39:09;97936.66;;;5.26;100.00
72896;BME280;61036;53.224;6.554;2023-12-22T07:41:36;97918.56;;;5.20;100.00
72896;BME280;61036;53.224;6.554;2023-12-22T07:44:01;97894.38;;;5.21;100.00
72896;BME280;61036;53.224;6.554;2023-12-22T07:46:27;97874.69;;;5.22;100.00
72896;BME280;61036;53.224;6.554;2023-12-22T07:48:54;97871.03;;;5.23;100.00
72896;BME280;61036;53.224;6.554;2023-12-22T07:51:20;97866.97;;;5.19;100.00
72896;BME280;61036;53.224;6.554;2023-12-22T07:53:46;97837.34;;;5.31;100.00
72896;BME280;61036;53.224;6.554;2023-12-22T07:56:11;97816.81;;;5.31;100.00
72896;BME280;61036;53.224;6.554;2023-12-22T07:58:37;97817.31;;;5.35;100.00
72896;BME280;61036;53.224;6.554;2023-12-22T08:01:04;97795.31;;;5.41;100.00
72896;BME280;61036;53.224;6.554;2023-12-22T08:03:31;97798.19;;;5.47;100.00
72896;BME280;61036;53.224;6.554;2023-12-22T08:05:57;97794.94;;;5.62;100.00
72896;BME280;61036;53.224;6.554;2023-12-22T08:08:22;97802.91;;;5.80;100.00
72896;BME280;61036;53.224;6.554;2023-12-22T08:10:48;97824.84;;;5.91;100.00
72896;BME280;61036;53.224;6.554;2023-12-22T08:13:13;97825.31;;;6.05;100.00
72896;BME280;61036;53.224;6.554;2023-12-22T08:15:39;97839.19;;;6.08;100.00
72896;BME280;61036;53.224;6.554;2023-12-22T08:18:05;97860.59;;;6.08;100.00
72896;BME280;61036;53.224;6.554;2023-12-22T08:20:31;97862.44;;;6.16;100.00
72896;BME280;61036;53.224;6.554;2023-12-22T08:22:57;97884.38;;;6.19;100.00
72896;BME280;61036;53.224;6.554;2023-12-22T08:25:22;97881.03;;;6.17;100.00
72896;BME280;61036;53.224;6.554;2023-12-22T08:27:48;97872.50;;;6.22;100.00
72896;BME280;61036;53.224;6.554;2023-12-22T08:30:13;97879.97;;;6.10;100.00
72896;BME280;61036;53.224;6.554;2023-12-22T08:32:40;97869.59;;;6.07;100.00
72896;BME280;61036;53.224;6.554;2023-12-22T08:35:06;97866.91;;;6.07;100.00
72896;BME280;61036;53.224;6.554;2023-12-22T08:37:32;97874.63;;;6.10;100.00
72896;BME280;61036;53.224;6.554;2023-12-22T08:39:57;97865.13;;;6.08;100.00
72896;BME280;61036;53.224;6.554;2023-12-22T08:42:24;97865.78;;;6.10;100.00
72896;BME280;61036;53.224;6.554;2023-12-22T08:44:50;97872.31;;;6.15;100.00
72896;BME280;61036;53.224;6.554;2023-12-22T08:47:15;97845.53;;;6.07;100.00
72896;BME280;61036;53.224;6.554;2023-12-22T08:49:41;97853.53;;;6.07;100.00
72896;BME280;61036;53.224;6.554;2023-12-22T08:52:07;97840.66;;;6.03;100.00
72896;BME280;61036;53.224;6.554;2023-12-22T08:54:33;97828.44;;;6.00;100.00
72896;BME280;61036;53.224;6.554;2023-12-22T08:57:02;97792.47;;;5.94;100.00
72896;BME280;61036;53.224;6.554;2023-12-22T08:59:27;97760.75;;;6.00;100.00
72896;BME280;61036;53.224;6.554;2023-12-22T09:01:53;97755.50;;;5.90;100.00
72896;BME280;61036;53.224;6.554;2023-12-22T09:04:18;97743.00;;;5.99;100.00
72896;BME280;61036;53.224;6.554;2023-12-22T09:06:46;97716.13;;;6.08;100.00
72896;BME280;61036;53.224;6.554;2023-12-22T09:09:12;97703.25;;;6.04;100.00
72896;BME280;61036;53.224;6.554;2023-12-22T09:11:37;97685.19;;;6.06;100.00
72896;BME280;61036;53.224;6.554;2023-12-22T09:14:05;97668.84;;;6.17;100.00
72896;BME280;61036;53.224;6.554;2023-12-22T09:16:33;97670.16;;;6.13;100.00
72896;BME280;61036;53.224;6.554;2023-12-22T09:18:59;97663.31;;;6.18;100.00
72896;BME280;61036;53.224;6.554;2023-12-22T09:21:25;97665.31;;;6.08;100.00
72896;BME280;61036;53.224;6.554;2023-12-22T09:23:50;97677.16;;;5.98;100.00
72896;BME280;61036;53.224;6.554;2023-12-22T09:26:15;97676.13;;;5.99;100.00
72896;BME280;61036;53.224;6.554;2023-12-22T09:28:41;97669.16;;;6.06;100.00
72896;BME280;61036;53.224;6.554;2023-12-22T09:31:08;97674.50;;;6.06;100.00
72896;BME280;61036;53.224;6.554;2023-12-22T09:33:33;97671.31;;;6.02;100.00
72896;BME280;61036;53.224;6.554;2023-12-22T09:35:59;97673.00;;;6.11;100.00
72896;BME280;61036;53.224;6.554;2023-12-22T09:38:25;97669.50;;;6.19;100.00
72896;BME280;61036;53.224;6.554;2023-12-22T09:40:50;97666.00;;;6.27;100.00
72896;BME280;61036;53.224;6.554;2023-12-22T09:43:18;97686.75;;;6.33;100.00
72896;BME280;61036;53.224;6.554;2023-12-22T09:45:46;97689.78;;;6.38;100.00
72896;BME280;61036;53.224;6.554;2023-12-22T09:48:12;97706.50;;;6.32;100.00
72896;BME280;61036;53.224;6.554;2023-12-22T09:50:46;97709.66;;;6.35;100.00
72896;BME280;61036;53.224;6.554;2023-12-22T09:53:15;97700.66;;;6.45;100.00
72896;BME280;61036;53.224;6.554;2023-12-22T09:55:44;97700.28;;;6.39;100.00
72896;BME280;61036;53.224;6.554;2023-12-22T09:58:12;97697.44;;;6.49;100.00
72896;BME280;61036;53.224;6.554;2023-12-22T10:00:39;97702.13;;;6.55;100.00
72896;BME280;61036;53.224;6.554;2023-12-22T10:03:06;97709.19;;;6.56;100.00
72896;BME280;61036;53.224;6.554;2023-12-22T10:05:32;97716.38;;;6.64;100.00
72896;BME280;61036;53.224;6.554;2023-12-22T10:08:00;97721.72;;;6.64;100.00
72896;BME280;61036;53.224;6.554;2023-12-22T10:10:28;97721.56;;;6.66;100.00
72896;BME280;61036;53.224;6.554;2023-12-22T10:12:55;97727.78;;;6.74;100.00
72896;BME280;61036;53.224;6.554;2023-12-22T10:15:22;97733.97;;;6.75;100.00
72896;BME280;61036;53.224;6.554;2023-12-22T10:17:53;97741.00;;;6.84;100.00
72896;BME280;61036;53.224;6.554;2023-12-22T10:20:19;97747.34;;;6.83;100.00
72896;BME280;61036;53.224;6.554;2023-12-22T10:22:44;97739.97;;;6.85;100.00
72896;BME280;61036;53.224;6.554;2023-12-22T10:25:14;97747.34;;;6.91;100.00
72896;BME280;61036;53.224;6.554;2023-12-22T10:27:42;97739.66;;;6.96;100.00
72896;BME280;61036;53.224;6.554;2023-12-22T10:30:09;97758.75;;;7.01;100.00
72896;BME280;61036;53.224;6.554;2023-12-22T10:32:39;97758.22;;;6.98;100.00
72896;BME280;61036;53.224;6.554;2023-12-22T10:35:05;97762.91;;;6.96;100.00
72896;BME280;61036;53.224;6.554;2023-12-22T10:37:32;97757.22;;;6.99;100.00
72896;BME280;61036;53.224;6.554;2023-12-22T10:39:58;97753.88;;;6.97;100.00
72896;BME280;61036;53.224;6.554;2023-12-22T10:42:23;97735.28;;;7.03;100.00
72896;BME280;61036;53.224;6.554;2023-12-22T10:44:49;97729.22;;;7.18;100.00
72896;BME280;61036;53.224;6.554;2023-12-22T10:47:17;97734.13;;;6.90;100.00
72896;BME280;61036;53.224;6.554;2023-12-22T10:49:42;97716.38;;;6.97;100.00
72896;BME280;61036;53.224;6.554;2023-12-22T10:52:16;97696.09;;;7.10;100.00
72896;BME280;61036;53.224;6.554;2023-12-22T10:54:42;97691.41;;;7.04;100.00
72896;BME280;61036;53.224;6.554;2023-12-22T10:57:09;97691.91;;;7.08;100.00
72896;BME280;61036;53.224;6.554;2023-12-22T10:59:38;97687.88;;;7.20;100.00
72896;BME280;61036;53.224;6.554;2023-12-22T11:02:07;97704.09;;;7.19;100.00
72896;BME280;61036;53.224;6.554;2023-12-22T11:04:37;97699.63;;;7.03;100.00
72896;BME280;61036;53.224;6.554;2023-12-22T11:07:03;97695.59;;;7.07;100.00
72896;BME280;61036;53.224;6.554;2023-12-22T11:09:32;97687.03;;;7.12;100.00
72896;BME280;61036;53.224;6.554;2023-12-22T11:12:00;97679.00;;;7.12;100.00
72896;BME280;61036;53.224;6.554;2023-12-22T11:14:29;97669.94;;;7.21;100.00
72896;BME280;61036;53.224;6.554;2023-12-22T11:16:57;97665.56;;;7.28;100.00
72896;BME280;61036;53.224;6.554;2023-12-22T11:19:25;97648.81;;;7.26;100.00
72896;BME280;61036;53.224;6.554;2023-12-22T11:21:52;97644.91;;;7.37;100.00
72896;BME280;61036;53.224;6.554;2023-12-22T11:24:20;97666.25;;;7.22;100.00
72896;BME280;61036;53.224;6.554;2023-12-22T11:26:47;97643.13;;;7.29;100.00
72896;BME280;61036;53.224;6.554;2023-12-22T11:29:15;97648.50;;;7.21;100.00
72896;BME280;61036;53.224;6.554;2023-12-22T11:31:45;97631.06;;;7.25;100.00
72896;BME280;61036;53.224;6.554;2023-12-22T11:34:11;97632.75;;;7.26;100.00
72896;BME280;61036;53.224;6.554;2023-12-22T11:36:38;97645.16;;;7.19;100.00
72896;BME280;61036;53.224;6.554;2023-12-22T11:39:05;97629.41;;;7.16;100.00
72896;BME280;61036;53.224;6.554;2023-12-22T11:41:33;97610.50;;;7.17;100.00
72896;BME280;61036;53.224;6.554;2023-12-22T11:44:01;97609.81;;;7.23;100.00
72896;BME280;61036;53.224;6.554;2023-12-22T11:46:29;97609.81;;;7.15;100.00
72896;BME280;61036;53.224;6.554;2023-12-22T11:48:56;97598.25;;;7.23;100.00
72896;BME280;61036;53.224;6.554;2023-12-22T11:51:21;97594.41;;;7.25;100.00
72896;BME280;61036;53.224;6.554;2023-12-22T11:53:47;97584.66;;;7.24;100.00
72896;BME280;61036;53.224;6.554;2023-12-22T11:56:13;97575.97;;;7.22;100.00
72896;BME280;61036;53.224;6.554;2023-12-22T11:58:43;97578.56;;;7.39;100.00
72896;BME280;61036;53.224;6.554;2023-12-22T12:01:17;97581.47;;;7.29;100.00
72896;BME280;61036;53.224;6.554;2023-12-22T12:03:55;97563.88;;;7.35;100.00
72896;BME280;61036;53.224;6.554;2023-12-22T12:08:59;97572.19;;;7.40;100.00
72896;BME280;61036;53.224;6.554;2023-12-22T12:14:21;97586.50;;;7.32;100.00
72896;BME280;61036;53.224;6.554;2023-12-22T12:16:48;97571.84;;;7.43;100.00
72896;BME280;61036;53.224;6.554;2023-12-22T12:19:14;97572.53;;;7.37;100.00
72896;BME280;61036;53.224;6.554;2023-12-22T12:21:40;97559.81;;;7.39;100.00
72896;BME280;61036;53.224;6.554;2023-12-22T12:24:06;97557.44;;;7.44;100.00
72896;BME280;61036;53.224;6.554;2023-12-22T12:26:34;97557.31;;;7.37;100.00
72896;BME280;61036;53.224;6.554;2023-12-22T12:29:01;97554.66;;;7.29;100.00
72896;BME280;61036;53.224;6.554;2023-12-22T12:31:36;97543.94;;;7.29;100.00
72896;BME280;61036;53.224;6.554;2023-12-22T12:34:09;97553.88;;;7.20;100.00
72896;BME280;61036;53.224;6.554;2023-12-22T12:36:35;97542.47;;;7.18;100.00
72896;BME280;61036;53.224;6.554;2023-12-22T12:39:06;97538.47;;;7.22;100.00
72896;BME280;61036;53.224;6.554;2023-12-22T12:41:40;97539.78;;;7.26;100.00
72896;BME280;61036;53.224;6.554;2023-12-22T12:44:07;97534.75;;;7.23;100.00
72896;BME280;61036;53.224;6.554;2023-12-22T12:46:40;97548.31;;;7.22;100.00
72896;BME280;61036;53.224;6.554;2023-12-22T12:49:10;97557.72;;;7.26;100.00
72896;BME280;61036;53.224;6.554;2023-12-22T12:51:37;97563.91;;;7.18;100.00
72896;BME280;61036;53.224;6.554;2023-12-22T12:54:05;97554.22;;;7.17;100.00
72896;BME280;61036;53.224;6.554;2023-12-22T12:56:46;97547.00;;;7.18;100.00
72896;BME280;61036;53.224;6.554;2023-12-22T12:59:13;97551.41;;;7.10;100.00
72896;BME280;61036;53.224;6.554;2023-12-22T13:01:42;97544.25;;;6.95;100.00
72896;BME280;61036;53.224;6.554;2023-12-22T13:04:09;97530.00;;;7.02;100.00
72896;BME280;61036;53.224;6.554;2023-12-22T13:06:34;97517.78;;;7.00;100.00
72896;BME280;61036;53.224;6.554;2023-12-22T13:09:00;97515.28;;;6.98;100.00
72896;BME280;61036;53.224;6.554;2023-12-22T13:11:28;97508.44;;;6.96;100.00
72896;BME280;61036;53.224;6.554;2023-12-22T13:13:54;97509.97;;;6.90;100.00
72896;BME280;61036;53.224;6.554;2023-12-22T13:16:22;97499.72;;;6.94;100.00
72896;BME280;61036;53.224;6.554;2023-12-22T13:18:52;97485.19;;;6.88;100.00